createdAt,value
2024-02-02T00:02:17.715Z,71.90
2024-02-02T00:04:44.567Z,72.00
2024-02-02T00:07:11.535Z,72.10
2024-02-02T00:09:38.585Z,71.90
2024-02-02T00:12:07.758Z,71.90
2024-02-02T00:14:34.903Z,71.80
2024-02-02T00:17:01.850Z,71.80
2024-02-02T00:19:29.022Z,71.90
2024-02-02T00:21:55.990Z,72.00
2024-02-02T00:24:22.932Z,72.00
2024-02-02T00:26:49.892Z,72.00
2024-02-02T00:29:16.844Z,72.00
2024-02-02T00:31:43.745Z,72.00
2024-02-02T00:34:10.852Z,71.80
2024-02-02T00:36:37.754Z,71.70
2024-02-02T00:39:04.510Z,71.60
2024-02-02T00:41:31.224Z,71.70
2024-02-02T00:43:57.887Z,71.70
2024-02-02T00:46:25.131Z,71.60
2024-02-02T00:48:52.040Z,71.60
2024-02-02T00:51:19.065Z,71.60
2024-02-02T00:53:45.852Z,71.80
2024-02-02T00:56:12.517Z,71.70
2024-02-02T00:58:39.191Z,71.70
2024-02-02T01:01:06.875Z,71.80
2024-02-02T01:03:35.177Z,71.80
2024-02-02T01:06:02.109Z,71.80
2024-02-02T01:08:30.426Z,71.80
2024-02-02T01:10:59.248Z,71.80
2024-02-02T01:13:27.675Z,71.80
2024-02-02T01:15:54.520Z,71.80
2024-02-02T01:18:21.405Z,71.70
2024-02-02T01:20:48.206Z,71.80
2024-02-02T01:23:14.891Z,71.70
2024-02-02T01:25:41.591Z,71.80
2024-02-02T01:28:08.322Z,71.70
2024-02-02T01:30:35.053Z,71.80
2024-02-02T01:33:01.864Z,71.80
2024-02-02T01:35:28.609Z,71.90
2024-02-02T01:37:55.437Z,71.90
2024-02-02T01:40:22.389Z,71.90
2024-02-02T01:42:49.111Z,71.90
2024-02-02T01:45:16.464Z,71.90
2024-02-02T01:47:43.327Z,71.90
2024-02-02T01:50:10.322Z,71.90
2024-02-02T01:52:37.099Z,71.90
2024-02-02T01:55:05.182Z,71.90
2024-02-02T01:57:32.070Z,71.90
2024-02-02T01:59:59.051Z,72.00
2024-02-02T02:02:25.732Z,72.00
2024-02-02T02:04:52.580Z,72.00
2024-02-02T02:07:19.287Z,72.00
2024-02-02T02:09:46.569Z,71.90
2024-02-02T02:12:13.456Z,71.80
2024-02-02T02:14:40.224Z,71.80
2024-02-02T02:17:07.461Z,71.80
2024-02-02T02:19:36.044Z,71.90
2024-02-02T02:22:03.494Z,71.90
2024-02-02T02:24:30.196Z,71.90
2024-02-02T02:26:57.273Z,71.80
2024-02-02T02:29:24.059Z,71.80
2024-02-02T02:31:57.060Z,71.80
2024-02-02T02:34:29.301Z,71.80
2024-02-02T02:36:56.241Z,71.80
2024-02-02T02:39:23.009Z,71.80
2024-02-02T02:41:49.750Z,71.70
2024-02-02T02:44:16.448Z,71.70
2024-02-02T02:46:43.806Z,71.60
2024-02-02T02:49:11.077Z,71.50
2024-02-02T02:51:37.872Z,71.40
2024-02-02T02:54:04.623Z,71.50
2024-02-02T02:56:31.662Z,71.50
2024-02-02T02:58:58.351Z,71.50
2024-02-02T03:01:25.061Z,71.50
2024-02-02T03:03:51.860Z,71.50
2024-02-02T03:06:18.650Z,71.40
2024-02-02T03:08:45.372Z,71.40
2024-02-02T03:11:12.486Z,71.40
2024-02-02T03:13:39.252Z,71.30
2024-02-02T03:16:06.723Z,71.40
2024-02-02T03:18:33.583Z,71.40
2024-02-02T03:21:00.477Z,71.30
2024-02-02T03:23:27.372Z,71.30
2024-02-02T03:25:54.014Z,71.30
2024-02-02T03:28:20.671Z,71.30
2024-02-02T03:30:47.431Z,71.30
2024-02-02T03:33:14.169Z,71.40
2024-02-02T03:35:40.884Z,71.30
2024-02-02T03:38:07.598Z,71.30
2024-02-02T03:40:34.389Z,71.20
2024-02-02T03:43:01.112Z,71.30
2024-02-02T03:45:27.825Z,71.20
2024-02-02T03:47:54.917Z,71.20
2024-02-02T03:50:21.643Z,71.10
2024-02-02T03:52:51.447Z,71.20
2024-02-02T03:55:18.340Z,71.20
2024-02-02T03:57:44.988Z,71.10
2024-02-02T04:00:12.352Z,71.10
2024-02-02T04:02:39.318Z,71.10
2024-02-02T04:05:06.640Z,71.20
2024-02-02T04:07:33.337Z,71.20
2024-02-02T04:09:59.991Z,71.20
2024-02-02T04:12:26.784Z,71.20
2024-02-02T04:14:53.664Z,71.30
2024-02-02T04:17:20.431Z,71.20
2024-02-02T04:19:47.214Z,71.20
2024-02-02T04:22:17.738Z,71.10
2024-02-02T04:24:44.853Z,71.00
2024-02-02T04:27:11.821Z,71.00
2024-02-02T04:29:38.522Z,70.90
2024-02-02T04:32:05.348Z,70.90
2024-02-02T04:34:32.377Z,71.00
2024-02-02T04:36:59.200Z,71.00
2024-02-02T04:39:25.978Z,70.90
2024-02-02T04:41:52.694Z,70.90
2024-02-02T04:44:19.410Z,71.00
2024-02-02T04:46:46.090Z,71.00
2024-02-02T04:49:13.387Z,71.00
2024-02-02T04:51:40.281Z,71.00
2024-02-02T04:54:07.067Z,71.00
2024-02-02T04:56:33.762Z,71.00
2024-02-02T04:59:00.438Z,71.00
2024-02-02T05:01:27.104Z,71.00
2024-02-02T05:03:54.641Z,70.90
2024-02-02T05:06:22.967Z,71.00
2024-02-02T05:08:50.178Z,71.00
2024-02-02T05:11:16.892Z,70.90
2024-02-02T05:13:43.574Z,70.80
2024-02-02T05:16:12.061Z,70.80
2024-02-02T05:18:40.321Z,70.70
2024-02-02T05:21:07.374Z,70.70
2024-02-02T05:23:34.235Z,70.70
2024-02-02T05:26:00.934Z,70.70
2024-02-02T05:28:27.599Z,70.60
2024-02-02T05:30:54.283Z,70.60
2024-02-02T05:33:21.196Z,70.50
2024-02-02T05:35:48.310Z,70.50
2024-02-02T05:38:15.023Z,70.50
2024-02-02T05:40:41.787Z,70.40
2024-02-02T05:43:11.714Z,70.40
2024-02-02T05:45:38.432Z,70.30
2024-02-02T05:48:05.386Z,70.20
2024-02-02T05:50:32.373Z,70.20
2024-02-02T05:52:59.047Z,70.00
2024-02-02T05:55:25.710Z,70.00
2024-02-02T05:57:52.366Z,69.90
2024-02-02T06:00:19.725Z,69.90
2024-02-02T06:02:47.840Z,69.80
2024-02-02T06:05:14.937Z,69.80
2024-02-02T06:07:41.728Z,69.70
2024-02-02T06:10:08.708Z,69.60
2024-02-02T06:12:37.875Z,69.60
2024-02-02T06:15:07.095Z,69.50
2024-02-02T06:17:34.091Z,69.40
2024-02-02T06:20:00.808Z,69.30
2024-02-02T06:22:27.523Z,69.20
2024-02-02T06:24:54.190Z,69.20
2024-02-02T06:27:24.168Z,69.20
2024-02-02T06:29:51.541Z,69.20
2024-02-02T06:32:22.008Z,69.10
2024-02-02T06:34:51.877Z,69.10
2024-02-02T06:37:19.632Z,69.20
2024-02-02T06:39:49.264Z,69.90
2024-02-02T06:42:16.096Z,69.30
2024-02-02T06:44:42.765Z,69.40
2024-02-02T06:47:09.453Z,69.30
2024-02-02T06:49:36.133Z,69.30
2024-02-02T06:52:03.431Z,69.20
2024-02-02T06:54:30.810Z,69.00
2024-02-02T06:56:57.565Z,68.90
2024-02-02T06:59:24.367Z,68.60
2024-02-02T07:01:52.876Z,68.40
2024-02-02T07:04:19.841Z,68.30
2024-02-02T07:06:48.105Z,68.10
2024-02-02T07:09:21.076Z,68.00
2024-02-02T07:11:57.989Z,67.70
2024-02-02T07:14:48.472Z,67.60
2024-02-02T07:17:41.807Z,67.40
2024-02-02T07:20:19.603Z,68.30
2024-02-02T07:22:46.327Z,67.60
2024-02-02T07:25:17.932Z,67.60
2024-02-02T07:27:47.631Z,67.60
2024-02-02T07:30:33.940Z,67.70
2024-02-02T07:33:01.820Z,67.70
2024-02-02T07:35:30.970Z,67.70
2024-02-02T07:38:00.171Z,67.60
2024-02-02T07:40:54.908Z,67.60
2024-02-02T07:43:21.777Z,67.50
2024-02-02T07:45:48.403Z,67.70
2024-02-02T07:48:15.354Z,67.70
2024-02-02T07:50:42.035Z,67.80
2024-02-02T07:53:08.856Z,67.70
2024-02-02T07:55:35.492Z,68.30
2024-02-02T07:58:04.211Z,67.70
2024-02-02T08:00:31.875Z,67.80
2024-02-02T08:02:58.577Z,67.80
2024-02-02T08:05:25.374Z,67.80
2024-02-02T08:07:52.069Z,67.80
2024-02-02T08:10:18.762Z,67.80
2024-02-02T08:12:45.467Z,67.80
2024-02-02T08:15:12.157Z,67.80
2024-02-02T08:17:38.925Z,67.80
2024-02-02T08:20:07.246Z,67.70
2024-02-02T08:22:34.010Z,67.80
2024-02-02T08:25:00.713Z,67.70
2024-02-02T08:27:27.553Z,67.60
2024-02-02T08:29:54.291Z,67.70
2024-02-02T08:32:21.031Z,67.60
2024-02-02T08:34:47.691Z,67.60
2024-02-02T08:37:15.618Z,67.60
2024-02-02T08:39:42.301Z,67.50
2024-02-02T08:42:24.580Z,67.40
2024-02-02T08:44:52.226Z,67.30
2024-02-02T08:47:22.654Z,67.30
2024-02-02T08:49:57.675Z,67.10
2024-02-02T08:52:35.669Z,67.10
2024-02-02T08:55:07.212Z,66.90
2024-02-02T08:57:42.200Z,67.00
2024-02-02T09:00:17.367Z,67.00
2024-02-02T09:02:53.919Z,67.50
2024-02-02T09:05:35.700Z,66.90
2024-02-02T09:08:27.899Z,67.00
2024-02-02T09:11:00.604Z,66.70
2024-02-02T09:13:36.669Z,66.80
2024-02-02T09:16:04.677Z,66.80
2024-02-02T09:18:46.613Z,67.00
2024-02-02T09:21:17.265Z,66.70
2024-02-02T09:23:50.933Z,67.00
2024-02-02T09:26:32.834Z,66.90
2024-02-02T09:29:01.667Z,66.90
2024-02-02T09:31:33.238Z,67.00
2024-02-02T09:34:08.007Z,67.10
2024-02-02T09:36:35.226Z,67.60
2024-02-02T09:39:36.939Z,67.10
2024-02-02T09:42:22.206Z,66.80
2024-02-02T09:44:57.916Z,67.00
2024-02-02T09:47:33.463Z,67.00
2024-02-02T09:50:32.086Z,67.10
2024-02-02T09:53:07.487Z,66.90
2024-02-02T09:55:42.803Z,67.20
2024-02-02T09:58:31.920Z,67.00
2024-02-02T10:01:06.438Z,67.20
2024-02-02T10:03:57.857Z,67.10
2024-02-02T10:06:42.445Z,66.90
2024-02-02T10:09:30.616Z,67.10
2024-02-02T10:12:11.822Z,67.20
2024-02-02T10:14:50.394Z,67.30
2024-02-02T10:17:42.027Z,67.10
2024-02-02T10:20:17.700Z,67.10
2024-02-02T10:23:12.369Z,67.10
2024-02-02T10:26:08.907Z,67.20
2024-02-02T10:28:51.757Z,67.30
2024-02-02T10:31:44.358Z,67.40
2024-02-02T10:34:40.385Z,67.30
2024-02-02T10:37:07.095Z,67.40
2024-02-02T10:39:47.315Z,67.60
2024-02-02T10:42:34.522Z,67.60
2024-02-02T10:45:16.146Z,67.60
2024-02-02T10:47:57.714Z,67.70
2024-02-02T10:50:36.168Z,68.00
2024-02-02T10:53:43.135Z,68.10
2024-02-02T10:56:31.717Z,68.10
2024-02-02T10:59:23.624Z,68.20
2024-02-02T11:02:03.661Z,68.20
2024-02-02T11:04:56.485Z,68.40
2024-02-02T11:07:28.573Z,68.40
2024-02-02T11:10:00.600Z,68.40
2024-02-02T11:12:53.741Z,68.50
2024-02-02T11:15:52.926Z,68.40
2024-02-02T11:18:49.193Z,68.40
2024-02-02T11:21:48.746Z,68.30
2024-02-02T11:24:30.845Z,68.40
2024-02-02T11:27:09.025Z,68.50
2024-02-02T11:30:03.548Z,68.50
2024-02-02T11:32:56.628Z,68.40
2024-02-02T11:35:48.079Z,68.50
2024-02-02T11:38:56.294Z,68.70
2024-02-02T11:41:28.289Z,68.70
2024-02-02T11:43:55.942Z,68.80
2024-02-02T11:46:28.667Z,68.90
2024-02-02T11:49:06.965Z,68.80
2024-02-02T11:51:38.547Z,68.60
2024-02-02T11:54:34.994Z,68.50
2024-02-02T11:57:05.203Z,68.70
2024-02-02T11:59:39.711Z,68.50
2024-02-02T12:02:09.229Z,68.60
2024-02-02T12:04:43.121Z,68.70
2024-02-02T12:07:37.338Z,68.50
2024-02-02T12:10:06.293Z,68.40
2024-02-02T12:12:36.896Z,68.20
2024-02-02T12:15:04.290Z,68.20
2024-02-02T12:17:31.516Z,68.20
2024-02-02T12:19:58.686Z,68.20
2024-02-02T12:22:25.585Z,68.50
2024-02-02T12:24:53.472Z,68.30
2024-02-02T12:27:20.436Z,68.40
2024-02-02T12:29:47.598Z,68.40
2024-02-02T12:32:14.495Z,68.60
2024-02-02T12:34:41.481Z,68.60
2024-02-02T12:37:08.577Z,68.50
2024-02-02T12:39:38.254Z,68.50
2024-02-02T12:42:07.706Z,68.50
2024-02-02T12:44:34.753Z,68.70
2024-02-02T12:47:01.546Z,68.70
2024-02-02T12:49:28.552Z,68.80
2024-02-02T12:51:57.531Z,69.20
2024-02-02T12:54:24.653Z,69.20
2024-02-02T12:56:51.797Z,69.20
2024-02-02T12:59:21.655Z,69.30
2024-02-02T13:01:51.649Z,69.30
2024-02-02T13:04:19.802Z,69.30
2024-02-02T13:06:47.008Z,69.40
2024-02-02T13:09:20.606Z,69.40
2024-02-02T13:11:47.846Z,69.60
2024-02-02T13:14:14.994Z,69.70
2024-02-02T13:16:41.779Z,69.80
2024-02-02T13:19:34.794Z,69.90
2024-02-02T13:22:04.891Z,70.30
2024-02-02T13:24:32.365Z,70.20
2024-02-02T13:27:06.364Z,70.20
2024-02-02T13:29:36.998Z,70.50
2024-02-02T13:32:08.258Z,70.50
2024-02-02T13:34:36.603Z,70.60
2024-02-02T13:37:06.819Z,70.70
2024-02-02T13:39:34.911Z,70.70
2024-02-02T13:42:06.113Z,70.90
2024-02-02T13:44:35.064Z,71.00
2024-02-02T13:47:01.788Z,71.10
2024-02-02T13:49:32.917Z,71.30
2024-02-02T13:52:07.018Z,71.50
2024-02-02T13:54:34.636Z,71.70
2024-02-02T13:57:02.037Z,71.80
2024-02-02T13:59:29.210Z,72.00
2024-02-02T14:02:08.223Z,72.20
2024-02-02T14:04:35.050Z,72.40
2024-02-02T14:07:02.192Z,72.40
2024-02-02T14:09:29.152Z,72.50
2024-02-02T14:12:02.518Z,72.50
2024-02-02T14:14:29.670Z,72.90
2024-02-02T14:17:05.863Z,72.80
2024-02-02T14:19:33.632Z,73.00
2024-02-02T14:22:05.816Z,73.00
2024-02-02T14:24:33.188Z,73.20
2024-02-02T14:27:02.389Z,73.20
2024-02-02T14:29:48.756Z,73.40
2024-02-02T14:32:17.198Z,73.80
2024-02-02T14:34:44.003Z,73.10
2024-02-02T14:37:12.305Z,73.50
2024-02-02T14:39:39.004Z,73.50
2024-02-02T14:42:06.561Z,73.60
2024-02-02T14:44:33.917Z,73.60
2024-02-02T14:47:01.356Z,73.70
2024-02-02T14:49:28.775Z,73.70
2024-02-02T14:51:55.830Z,73.70
2024-02-02T14:54:24.404Z,73.60
2024-02-02T14:56:51.974Z,73.50
2024-02-02T14:59:29.362Z,73.60
2024-02-02T15:01:57.254Z,73.60
2024-02-02T15:04:24.091Z,73.60
2024-02-02T15:06:51.174Z,74.30
2024-02-02T15:09:18.179Z,74.40
2024-02-02T15:11:45.972Z,73.80
2024-02-02T15:14:13.861Z,73.90
2024-02-02T15:16:40.702Z,73.80
2024-02-02T15:19:07.528Z,74.00
2024-02-02T15:21:34.731Z,73.90
2024-02-02T15:24:01.989Z,73.90
2024-02-02T15:26:29.127Z,73.90
2024-02-02T15:28:55.807Z,73.90
2024-02-02T15:31:23.522Z,74.00
2024-02-02T15:33:50.531Z,74.10
2024-02-02T15:36:17.440Z,74.10
2024-02-02T15:39:00.016Z,74.10
2024-02-02T15:41:30.795Z,74.10
2024-02-02T15:43:57.541Z,74.10
2024-02-02T15:46:24.873Z,74.10
2024-02-02T15:48:52.081Z,74.10
2024-02-02T15:51:19.525Z,74.20
2024-02-02T15:53:47.033Z,74.20
2024-02-02T15:56:18.103Z,74.20
2024-02-02T15:58:44.921Z,74.30
2024-02-02T16:01:13.030Z,74.30
2024-02-02T16:03:43.456Z,75.00
2024-02-02T16:06:11.519Z,74.40
2024-02-02T16:08:38.989Z,74.40
2024-02-02T16:11:05.905Z,74.40
2024-02-02T16:13:32.780Z,74.50
2024-02-02T16:16:00.478Z,74.60
2024-02-02T16:18:27.564Z,74.60
2024-02-02T16:20:54.577Z,74.60
2024-02-02T16:23:21.347Z,74.70
2024-02-02T16:25:48.039Z,74.70
2024-02-02T16:28:14.786Z,74.70
2024-02-02T16:30:43.230Z,74.80
2024-02-02T16:33:10.632Z,74.90
2024-02-02T16:35:37.537Z,75.00
2024-02-02T16:38:04.451Z,75.10
2024-02-02T16:40:31.246Z,75.20
2024-02-02T16:42:58.010Z,75.20
2024-02-02T16:45:24.831Z,75.30
2024-02-02T16:47:53.999Z,75.40
2024-02-02T16:50:20.730Z,75.60
2024-02-02T16:52:47.528Z,75.60
2024-02-02T16:55:14.562Z,75.70
2024-02-02T16:57:41.292Z,75.80
2024-02-02T17:00:09.559Z,75.90
2024-02-02T17:02:36.746Z,76.00
2024-02-02T17:05:03.754Z,76.00
2024-02-02T17:07:30.599Z,76.10
2024-02-02T17:09:57.510Z,76.10
2024-02-02T17:12:26.059Z,76.30
2024-02-02T17:14:52.936Z,76.30
2024-02-02T17:17:19.693Z,76.40
2024-02-02T17:19:46.649Z,76.50
2024-02-02T17:22:13.393Z,76.50
2024-02-02T17:24:41.198Z,76.50
2024-02-02T17:27:08.027Z,76.70
2024-02-02T17:29:34.808Z,76.70
2024-02-02T17:32:01.476Z,76.70
2024-02-02T17:34:28.244Z,76.70
2024-02-02T17:36:55.074Z,76.70
2024-02-02T17:39:21.869Z,76.70
2024-02-02T17:41:48.583Z,76.80
2024-02-02T17:44:20.699Z,76.90
2024-02-02T17:46:51.219Z,77.00
2024-02-02T17:49:18.434Z,77.00
2024-02-02T17:51:45.280Z,76.90
2024-02-02T17:54:12.097Z,77.00
2024-02-02T17:56:38.776Z,77.00
2024-02-02T17:59:05.781Z,77.00
2024-02-02T18:01:34.633Z,77.10
2024-02-02T18:04:01.920Z,77.10
2024-02-02T18:06:28.831Z,77.20
2024-02-02T18:08:55.622Z,77.20
2024-02-02T18:11:22.280Z,77.20
2024-02-02T18:13:48.964Z,77.10
2024-02-02T18:16:15.870Z,77.10
2024-02-02T18:18:43.071Z,77.10
2024-02-02T18:21:10.739Z,77.20
2024-02-02T18:23:37.460Z,77.20
2024-02-02T18:26:05.055Z,77.20
2024-02-02T18:28:32.369Z,77.30
2024-02-02T18:30:59.126Z,77.30
2024-02-02T18:33:26.173Z,77.30
2024-02-02T18:35:52.909Z,77.40
2024-02-02T18:38:19.582Z,77.40
2024-02-02T18:40:50.484Z,77.60
2024-02-02T18:43:18.249Z,77.50
2024-02-02T18:45:45.051Z,77.50
2024-02-02T18:48:12.053Z,77.60
2024-02-02T18:50:38.891Z,77.70
2024-02-02T18:53:05.563Z,77.70
2024-02-02T18:55:32.287Z,77.80
2024-02-02T18:57:58.961Z,77.80
2024-02-02T19:00:25.803Z,77.80
2024-02-02T19:02:52.761Z,77.90
2024-02-02T19:05:19.900Z,77.80
2024-02-02T19:07:46.588Z,77.90
2024-02-02T19:10:16.541Z,78.00
2024-02-02T19:12:43.523Z,78.00
2024-02-02T19:15:10.238Z,78.10
2024-02-02T19:17:37.054Z,78.10
2024-02-02T19:20:04.228Z,78.10
2024-02-02T19:22:30.899Z,78.20
2024-02-02T19:24:59.405Z,78.20
2024-02-02T19:27:26.288Z,78.30
2024-02-02T19:29:52.986Z,78.30
2024-02-02T19:32:19.701Z,78.30
2024-02-02T19:34:46.425Z,78.40
2024-02-02T19:37:13.166Z,78.50
2024-02-02T19:39:39.912Z,78.60
2024-02-02T19:42:06.863Z,78.60
2024-02-02T19:44:33.599Z,78.70
2024-02-02T19:47:00.250Z,78.70
2024-02-02T19:49:27.124Z,78.70
2024-02-02T19:51:53.992Z,78.80
2024-02-02T19:54:20.812Z,78.90
2024-02-02T19:56:47.624Z,78.90
2024-02-02T19:59:16.013Z,78.90
2024-02-02T20:01:46.929Z,78.90
2024-02-02T20:04:13.898Z,79.10
2024-02-02T20:06:41.331Z,78.90
2024-02-02T20:09:09.330Z,79.00
2024-02-02T20:11:36.162Z,79.00
2024-02-02T20:14:02.837Z,79.10
2024-02-02T20:16:29.595Z,79.10
2024-02-02T20:18:56.395Z,79.10
2024-02-02T20:21:26.098Z,79.20
2024-02-02T20:23:55.424Z,79.10
2024-02-02T20:26:23.154Z,79.20
2024-02-02T20:28:51.164Z,79.10
2024-02-02T20:31:18.275Z,79.10
2024-02-02T20:33:45.395Z,79.20
2024-02-02T20:36:12.369Z,79.20
2024-02-02T20:38:41.738Z,79.20
2024-02-02T20:41:09.370Z,79.30
2024-02-02T20:43:36.105Z,79.20
2024-02-02T20:46:02.824Z,79.20
2024-02-02T20:48:29.511Z,79.20
2024-02-02T20:50:56.323Z,79.20
2024-02-02T20:53:23.225Z,79.20
2024-02-02T20:55:50.250Z,79.20
2024-02-02T20:58:17.100Z,79.20
2024-02-02T21:00:43.894Z,79.20
2024-02-02T21:03:11.130Z,79.20
2024-02-02T21:05:38.232Z,79.20
2024-02-02T21:08:05.311Z,79.20
2024-02-02T21:10:32.460Z,79.30
2024-02-02T21:12:59.319Z,79.20
2024-02-02T21:15:29.954Z,79.30
2024-02-02T21:17:58.300Z,79.30
2024-02-02T21:20:31.916Z,79.30
2024-02-02T21:22:58.728Z,79.30
2024-02-02T21:25:25.497Z,79.30
2024-02-02T21:27:52.301Z,79.30
2024-02-02T21:30:19.303Z,79.30
2024-02-02T21:32:46.071Z,79.30
2024-02-02T21:35:12.891Z,79.30
2024-02-02T21:37:39.590Z,79.30
2024-02-02T21:40:07.187Z,79.30
2024-02-02T21:42:33.966Z,79.30
2024-02-02T21:45:00.721Z,79.30
2024-02-02T21:47:27.426Z,79.40
2024-02-02T21:49:54.490Z,79.30
2024-02-02T21:52:21.361Z,79.40
2024-02-02T21:54:48.270Z,79.30
2024-02-02T21:57:15.164Z,79.30
2024-02-02T21:59:41.947Z,79.30
2024-02-02T22:02:08.696Z,79.30
2024-02-02T22:04:35.472Z,79.40
2024-02-02T22:07:04.274Z,79.40
2024-02-02T22:09:31.467Z,79.40
2024-02-02T22:11:58.344Z,79.40
2024-02-02T22:14:25.437Z,79.60
2024-02-02T22:16:52.214Z,79.50
2024-02-02T22:19:18.986Z,79.60
2024-02-02T22:21:47.016Z,79.50
2024-02-02T22:24:13.766Z,79.60
2024-02-02T22:26:40.479Z,79.70
2024-02-02T22:29:07.289Z,79.70
2024-02-02T22:31:35.158Z,79.60
2024-02-02T22:34:02.809Z,79.70
2024-02-02T22:36:30.201Z,79.70
2024-02-02T22:38:57.010Z,79.80
2024-02-02T22:41:32.846Z,79.80
2024-02-02T22:44:02.047Z,79.90
2024-02-02T22:46:32.939Z,79.90
2024-02-02T22:49:00.617Z,80.20
2024-02-02T22:51:27.676Z,80.10
2024-02-02T22:53:54.366Z,80.20
2024-02-02T22:56:21.201Z,80.30
2024-02-02T22:58:47.893Z,80.40
2024-02-02T23:01:14.951Z,80.40
2024-02-02T23:03:41.877Z,80.60
2024-02-02T23:06:08.768Z,80.50
2024-02-02T23:08:35.584Z,80.60
2024-02-02T23:11:02.608Z,80.70
2024-02-02T23:13:29.318Z,80.70
2024-02-02T23:15:58.930Z,81.00
2024-02-02T23:18:27.397Z,81.00
2024-02-02T23:20:58.951Z,81.00
2024-02-02T23:23:25.863Z,81.10
2024-02-02T23:25:52.645Z,81.10
2024-02-02T23:28:19.324Z,81.20
2024-02-02T23:30:47.034Z,81.20
2024-02-02T23:33:14.720Z,81.30
2024-02-02T23:35:42.163Z,81.40
2024-02-02T23:38:09.245Z,81.50
2024-02-02T23:40:36.019Z,81.50
2024-02-02T23:43:02.997Z,81.60
2024-02-02T23:45:30.569Z,81.70
2024-02-02T23:47:57.534Z,81.70
2024-02-02T23:50:24.340Z,81.80
2024-02-02T23:52:51.015Z,81.80
2024-02-02T23:55:18.019Z,81.80
2024-02-02T23:57:44.863Z,81.80
